Kadoka, South Dakota
Current Conditions -  °F | °C
As of 5:49 AM on Sunday 21 Dec 2014 (Local Time) from KPHP Reporting Station
Haze Haze  
Wind Chill: 18°   Ceiling: Unl
Heat Index: 18°   Visibility: 2mi
Dew Point: 16°   Wind: 3mph
Humidity: 93%   Direction: 280°W
Pressure: 29.61"   Gusts: NA
Location:  43.83°N, 101.51°W
Report Text: KPHP 211249Z AUTO 28003KT 2SM BR CLR M08/M09 A2961 RMK AO2 I1000
Loading
Personal Weather Stations






























Interactive Weather Map New forecast layout! Learn more

10-Day Weather Forecast

Advertisements
Track Severe Weather on mobile